KASX/ASX METAR and TAF weather

Enter ICAO airport designator
Station Type Date Time Source
KASX METAR 2023/02/04 01:53 UTC NOAA

KASX 040153Z AUTO 18007KT 10SM OVC070 M17/M25 A3031 RMK AO2 SLP292 T11671250


Station Type Date Time Source
KASX Decoded METAR 2023/02/04 01:53 UTC NOAA

ASHLAND KENNEDY MEMORIAL, WI, United States (KASX) 46-33N 090-55W 251M
Feb 03, 2023 - 08:53 PM EST / 2023.02.04 0153 UTC
Wind: from the S (180 degrees) at 8 MPH (7 KT):0
Visibility: 10 mile(s):0
Sky conditions: overcast
Temperature: 1.9 F (-16.7 C)
Windchill: -11 F (-24 C):2
Dew Point: -13.0 F (-25.0 C)
Relative Humidity: 48%
Pressure (altimeter): 30.31 in. Hg (1026 hPa)
ob: KASX 040153Z AUTO 18007KT 10SM OVC070 M17/M25 A3031 RMK AO2 SLP292 T11671250
cycle: 2

Station Type Date Time Source
KASX TAF UTC NOAA

Error!

Example: see airport list